Time;durP1;ratioP1;P1;durP2;ratioP2;P2;SDS_P1;SDS_P2;PMS_P1;PMS_P2;Temp;Humidity;BMP_temperature;BMP_pressure;BME280_temperature;BME280_humidity;BME280_pressure;Samples;Min_cycle;Max_cycle;Signal;HPM_P1;HPM_P2
2021/04/21 00:02:05;;;;;;;10.97;5.97;;;6.30;63.70;;;;;;5000253;28;20505;-66
2021/04/21 00:04:33;;;;;;;14.33;6.57;;;6.30;63.80;;;;;;5016917;28;20041;-65
2021/04/21 00:07:00;;;;;;;11.47;6.53;;;6.20;64.00;;;;;;5016156;28;20056;-67
2021/04/21 00:09:26;;;;;;;10.93;5.40;;;6.20;64.00;;;;;;5034209;28;20497;-66
2021/04/21 00:11:53;;;;;;;17.70;6.87;;;6.20;64.20;;;;;;5034797;28;20030;-65
2021/04/21 00:14:21;;;;;;;14.13;6.83;;;6.10;64.30;;;;;;4996563;28;20107;-65
2021/04/21 00:16:50;;;;;;;14.07;6.33;;;6.10;64.60;;;;;;5016127;28;20041;-66
2021/04/21 00:19:19;;;;;;;11.73;6.37;;;6.10;64.80;;;;;;5020895;28;20041;-67
2021/04/21 00:21:46;;;;;;;13.00;6.63;;;6.10;64.90;;;;;;5035699;28;20034;-66
2021/04/21 00:24:12;;;;;;;11.07;6.03;;;6.10;65.10;;;;;;5019000;28;20075;-65
2021/04/21 00:26:39;;;;;;;12.17;6.17;;;6.10;65.40;;;;;;5017113;28;20049;-66
2021/04/21 00:29:08;;;;;;;12.67;6.20;;;6.10;65.60;;;;;;5017555;28;20065;-66
2021/04/21 00:31:35;;;;;;;12.90;6.00;;;6.00;65.70;;;;;;5000902;28;20042;-67
2021/04/21 00:34:02;;;;;;;11.63;6.10;;;6.00;65.90;;;;;;4997991;28;20042;-68
2021/04/21 00:36:31;;;;;;;10.83;5.60;;;6.00;66.00;;;;;;4999702;28;20045;-66
2021/04/21 00:38:57;;;;;;;11.30;5.87;;;6.00;66.10;;;;;;5015806;28;20126;-67
2021/04/21 00:41:48;;;;;;;12.30;5.93;;;5.90;66.20;;;;;;5017605;28;20483;-69
2021/04/21 00:44:16;;;;;;;12.13;6.07;;;5.90;66.40;;;;;;5016573;28;20076;-67
2021/04/21 00:46:51;;;;;;;12.03;5.53;;;5.90;66.60;;;;;;5037521;28;20045;-67
2021/04/21 00:49:20;;;;;;;11.57;5.93;;;5.80;66.70;;;;;;5019772;28;20064;-66
2021/04/21 00:52:18;;;;;;;13.93;6.23;;;5.80;66.80;;;;;;5036144;28;20062;-65
2021/04/21 00:55:02;;;;;;;10.17;5.67;;;5.70;67.10;;;;;;5013985;28;20042;-66
2021/04/21 00:57:50;;;;;;;10.83;5.57;;;5.70;67.30;;;;;;4997657;28;20119;-65
2021/04/21 01:00:20;;;;;;;10.90;5.40;;;5.70;67.40;;;;;;5026366;28;20176;-66
2021/04/21 01:03:23;;;;;;;11.87;5.53;;;5.70;67.60;;;;;;5024507;28;20099;-68
2021/04/21 01:06:03;;;;;;;12.27;6.10;;;5.60;67.80;;;;;;5000440;28;20124;-66
2021/04/21 01:08:36;;;;;;;11.50;6.03;;;5.60;68.10;;;;;;5014835;28;20060;-67
2021/04/21 01:11:08;;;;;;;14.73;5.77;;;5.60;68.30;;;;;;4999676;28;20084;-66
2021/04/21 01:13:41;;;;;;;11.37;5.70;;;5.50;68.60;;;;;;5015104;28;20087;-66
2021/04/21 01:16:09;;;;;;;10.23;5.47;;;5.50;68.70;;;;;;5033978;28;20029;-66
2021/04/21 01:18:38;;;;;;;14.70;5.70;;;5.50;68.80;;;;;;5032388;28;20429;-66
2021/04/21 01:21:08;;;;;;;11.73;5.60;;;5.50;68.90;;;;;;5032683;28;20037;-66
2021/04/21 01:24:07;;;;;;;10.70;5.87;;;5.50;69.00;;;;;;5014966;28;20077;-66
2021/04/21 01:26:58;;;;;;;12.63;5.40;;;5.50;69.20;;;;;;5033151;28;20037;-66
2021/04/21 01:29:48;;;;;;;11.55;5.80;;;5.50;69.10;;;;;;5015825;28;20034;-66
2021/04/21 01:32:32;;;;;;;11.13;5.43;;;5.40;69.20;;;;;;5032240;28;20052;-66
2021/04/21 01:34:58;;;;;;;11.17;5.40;;;5.40;69.30;;;;;;5033354;28;20053;-66
2021/04/21 01:37:34;;;;;;;10.87;5.73;;;5.40;69.40;;;;;;5014554;28;20041;-66
2021/04/21 01:40:09;;;;;;;12.37;5.90;;;5.30;69.80;;;;;;4995748;28;20042;-66
2021/04/21 01:42:40;;;;;;;11.70;5.57;;;5.30;70.10;;;;;;4999182;28;20058;-66
2021/04/21 01:45:07;;;;;;;;;;;5.30;70.30;;;;;;5016012;28;20117;-66
2021/04/21 01:47:32;;;;;;;11.93;5.47;;;5.30;70.40;;;;;;5014316;28;19913;-66
2021/04/21 01:50:06;;;;;;;12.47;6.07;;;5.30;70.40;;;;;;5033057;28;20075;-66
2021/04/21 01:52:40;;;;;;;12.60;5.83;;;5.20;70.40;;;;;;5032539;28;20030;-66
2021/04/21 01:55:21;;;;;;;11.17;5.50;;;5.20;70.50;;;;;;5014983;28;20033;-66
2021/04/21 01:57:57;;;;;;;;;;;5.20;70.70;;;;;;5032115;28;20037;-67
2021/04/21 02:00:37;;;;;;;12.33;5.63;;;5.20;70.70;;;;;;5015105;28;19948;-66
2021/04/21 02:03:14;;;;;;;12.50;5.70;;;5.10;70.60;;;;;;5031785;28;20672;-66
2021/04/21 02:05:46;;;;;;;11.17;5.70;;;5.10;70.90;;;;;;5032991;28;20318;-66
2021/04/21 02:08:23;;;;;;;11.20;6.17;;;5.10;71.20;;;;;;5013824;28;20041;-66
2021/04/21 02:11:17;;;;;;;13.37;5.60;;;5.10;71.30;;;;;;5032807;28;20038;-66
2021/04/21 02:14:07;;;;;;;10.47;5.93;;;5.00;71.50;;;;;;5031444;28;20083;-66
2021/04/21 02:16:36;;;;;;;11.95;6.38;;;5.00;71.70;;;;;;5032636;28;20033;-66
2021/04/21 02:19:15;;;;;;;13.17;6.57;;;5.00;71.70;;;;;;5012685;28;20180;-66
2021/04/21 02:21:47;;;;;;;13.57;5.90;;;5.00;71.90;;;;;;5014556;28;20033;-66
2021/04/21 02:24:37;;;;;;;11.73;5.70;;;4.90;72.00;;;;;;5014303;28;20176;-66
2021/04/21 02:27:06;;;;;;;12.23;6.40;;;4.90;72.20;;;;;;5011745;28;20129;-66
2021/04/21 02:29:53;;;;;;;12.20;6.33;;;4.90;72.30;;;;;;4980771;28;20061;-66
2021/04/21 02:32:47;;;;;;;11.47;6.40;;;4.90;72.50;;;;;;5010646;28;20490;-66
2021/04/21 02:35:22;;;;;;;11.07;5.83;;;4.90;72.60;;;;;;4980763;28;20457;-66
2021/04/21 02:38:02;;;;;;;15.37;6.30;;;4.90;72.70;;;;;;5012017;28;20037;-66
2021/04/21 02:40:37;;;;;;;12.23;6.40;;;4.90;72.80;;;;;;5012004;28;20113;-66
2021/04/21 02:43:15;;;;;;;11.97;6.23;;;4.80;72.90;;;;;;5010926;28;20049;-66
2021/04/21 02:46:01;;;;;;;13.17;6.53;;;4.80;73.00;;;;;;5011867;28;20034;-66
2021/04/21 02:48:39;;;;;;;12.87;6.43;;;4.80;73.10;;;;;;5011221;28;20045;-66
2021/04/21 02:51:16;;;;;;;10.90;6.27;;;4.80;73.20;;;;;;5012187;28;20061;-66
2021/04/21 02:53:55;;;;;;;11.40;6.03;;;4.70;73.30;;;;;;5011672;28;20040;-66
2021/04/21 02:56:40;;;;;;;12.43;6.50;;;4.70;73.30;;;;;;5011990;28;20057;-66
2021/04/21 02:59:47;;;;;;;13.00;6.30;;;4.70;73.40;;;;;;5011286;28;20038;-66
2021/04/21 03:02:34;;;;;;;14.90;7.13;;;4.70;73.70;;;;;;5011531;28;20049;-70
2021/04/21 03:05:21;;;;;;;13.83;7.10;;;4.70;74.20;;;;;;5009928;28;20037;-69
2021/04/21 03:08:02;;;;;;;15.40;7.53;;;4.70;73.90;;;;;;4994041;28;20622;-70
2021/04/21 03:10:36;;;;;;;14.07;6.53;;;4.60;73.80;;;;;;5011549;28;20045;-70
2021/04/21 03:13:09;;;;;;;12.80;6.43;;;4.60;74.20;;;;;;5010671;28;20121;-70
2021/04/21 03:15:39;;;;;;;13.00;6.83;;;4.60;74.20;;;;;;5011600;28;20124;-70
2021/04/21 03:18:08;;;;;;;14.50;7.37;;;4.60;74.30;;;;;;5011370;28;20356;-72
2021/04/21 03:20:38;;;;;;;12.57;6.93;;;4.60;74.40;;;;;;4993868;28;20445;-70
2021/04/21 03:23:05;;;;;;;10.70;6.50;;;4.60;74.50;;;;;;5011434;28;20038;-71
2021/04/21 03:25:34;;;;;;;13.33;7.50;;;4.60;74.50;;;;;;4994011;28;20181;-71
2021/04/21 03:28:04;;;;;;;15.23;7.30;;;4.50;74.60;;;;;;5010540;28;20030;-70
2021/04/21 03:30:32;;;;;;;14.50;7.30;;;4.50;74.60;;;;;;5011080;28;20041;-71
2021/04/21 03:33:19;;;;;;;12.33;6.77;;;4.50;74.70;;;;;;5009413;28;20276;-71
2021/04/21 03:35:51;;;;;;;13.53;7.10;;;4.50;75.00;;;;;;4993871;28;20037;-71
2021/04/21 03:38:18;;;;;;;12.37;7.30;;;4.40;75.10;;;;;;5010522;28;20124;-71
2021/04/21 03:40:43;;;;;;;13.03;7.23;;;4.40;75.10;;;;;;5011309;28;20034;-72
2021/04/21 03:43:10;;;;;;;13.23;7.50;;;4.40;75.20;;;;;;4992996;28;20107;-71
2021/04/21 03:45:37;;;;;;;11.97;6.93;;;4.40;76.00;;;;;;5011370;28;20038;-71
2021/04/21 03:48:04;;;;;;;14.00;7.50;;;4.40;75.80;;;;;;4993404;28;20034;-71
2021/04/21 03:50:30;;;;;;;14.30;7.67;;;4.40;75.90;;;;;;5011008;28;20026;-71
2021/04/21 03:53:00;;;;;;;15.43;7.00;;;4.40;75.80;;;;;;4993538;28;20045;-71
2021/04/21 03:55:26;;;;;;;14.48;7.32;;;4.40;75.90;;;;;;4993314;28;20038;-71
2021/04/21 03:57:57;;;;;;;16.20;7.97;;;4.40;75.90;;;;;;5010480;28;20137;-71
2021/04/21 04:00:25;;;;;;;14.68;8.20;;;4.40;75.90;;;;;;5010761;28;20041;-70
2021/04/21 04:02:58;;;;;;;16.20;7.43;;;4.40;75.90;;;;;;4977491;28;20490;-71
2021/04/21 04:05:28;;;;;;;15.23;8.40;;;4.40;76.10;;;;;;5011181;28;20034;-71
2021/04/21 04:07:58;;;;;;;13.38;7.13;;;4.30;76.10;;;;;;5009309;28;20034;-71
2021/04/21 04:10:26;;;;;;;14.97;8.00;;;4.30;76.20;;;;;;4993812;28;20556;-71
2021/04/21 04:12:54;;;;;;;13.43;7.67;;;4.30;76.50;;;;;;5010617;28;20277;-71
2021/04/21 04:15:21;;;;;;;13.33;7.80;;;4.40;76.70;;;;;;5011074;28;20056;-71
2021/04/21 04:17:49;;;;;;;15.60;7.50;;;4.40;76.90;;;;;;5009845;28;20053;-71
2021/04/21 04:20:16;;;;;;;16.67;8.63;;;4.50;76.90;;;;;;4993342;28;20037;-66
2021/04/21 04:22:48;;;;;;;14.47;7.57;;;4.50;77.00;;;;;;5009704;28;20041;-66
2021/04/21 04:25:16;;;;;;;12.73;7.10;;;4.50;77.00;;;;;;5010509;28;20061;-66
2021/04/21 04:27:42;;;;;;;13.47;7.60;;;4.50;77.10;;;;;;5009953;28;20038;-66
2021/04/21 04:30:09;;;;;;;14.57;7.33;;;4.50;77.10;;;;;;5010560;28;20495;-66
2021/04/21 04:32:39;;;;;;;15.50;7.60;;;4.60;77.20;;;;;;5010527;28;20497;-66
2021/04/21 04:35:05;;;;;;;12.88;7.28;;;4.60;77.40;;;;;;5009301;28;20039;-66
2021/04/21 04:37:33;;;;;;;14.07;7.63;;;4.60;77.50;;;;;;5010280;28;20422;-66
2021/04/21 04:40:01;;;;;;;14.50;7.67;;;4.70;77.60;;;;;;4993357;28;20383;-66
2021/04/21 04:42:27;;;;;;;13.13;7.40;;;4.70;77.70;;;;;;5009826;28;20041;-66
2021/04/21 04:44:55;;;;;;;13.07;7.07;;;4.80;77.80;;;;;;5014298;28;20495;-66
2021/04/21 04:47:30;;;;;;;15.43;7.80;;;4.80;78.00;;;;;;4996620;28;20087;-66
2021/04/21 04:50:06;;;;;;;15.10;7.63;;;4.90;78.00;;;;;;4997738;28;20044;-66
2021/04/21 04:52:33;;;;;;;14.07;7.50;;;5.00;78.20;;;;;;5013820;28;20061;-66
2021/04/21 04:55:01;;;;;;;16.00;7.70;;;5.10;78.30;;;;;;5014440;28;20092;-66
2021/04/21 04:57:30;;;;;;;12.07;6.90;;;5.20;78.40;;;;;;5013910;28;20061;-66
2021/04/21 05:00:06;;;;;;;12.83;7.33;;;5.20;78.30;;;;;;4996083;28;20041;-66
2021/04/21 05:02:37;;;;;;;15.90;8.27;;;5.30;78.30;;;;;;5014258;28;20042;-65
2021/04/21 05:05:08;;;;;;;14.13;7.60;;;5.50;78.60;;;;;;5013591;28;20046;-65
2021/04/21 05:07:38;;;;;;;;;;;5.60;79.00;;;;;;4996442;28;20536;-66
2021/04/21 05:10:13;;;;;;;17.88;7.70;;;5.90;80.30;;;;;;5014559;28;20384;-65
2021/04/21 05:12:42;;;;;;;13.40;7.07;;;6.40;82.30;;;;;;4998854;28;20125;-65
2021/04/21 05:15:37;;;;;;;12.43;6.67;;;6.90;82.10;;;;;;5015277;28;20030;-65
2021/04/21 05:18:33;;;;;;;12.47;6.93;;;7.40;81.30;;;;;;5032832;28;20418;-65
2021/04/21 05:21:33;;;;;;;13.23;7.40;;;8.00;82.60;;;;;;5032901;28;20033;-65
2021/04/21 05:24:18;;;;;;;17.48;7.45;;;9.00;83.70;;;;;;5030434;28;20037;-65
2021/04/21 05:27:21;;;;;;;11.57;6.80;;;9.90;83.10;;;;;;5014913;28;20513;-70
2021/04/21 05:30:12;;;;;;;11.18;6.60;;;10.80;82.40;;;;;;4989585;28;20046;-71
2021/04/21 05:33:13;;;;;;;;;;;11.70;80.10;;;;;;5012067;28;20042;-72
2021/04/21 05:36:06;;;;;;;15.48;7.22;;;12.20;78.70;;;;;;5012105;28;20374;-73
2021/04/21 05:39:23;;;;;;;12.40;7.13;;;12.70;76.00;;;;;;5011375;28;20579;-71
2021/04/21 05:42:19;;;;;;;14.80;8.20;;;12.80;73.30;;;;;;4995340;28;20041;-71
2021/04/21 05:45:25;;;;;;;13.68;8.15;;;12.80;71.90;;;;;;5013059;28;20393;-71
2021/04/21 05:48:25;;;;;;;13.43;8.02;;;13.00;71.70;;;;;;5011635;28;20038;-72
2021/04/21 05:51:21;;;;;;;14.70;7.82;;;13.70;72.00;;;;;;5012903;28;20038;-72
2021/04/21 05:54:20;;;;;;;15.70;7.97;;;14.50;70.70;;;;;;4994936;28;20088;-73
2021/04/21 05:57:14;;;;;;;13.68;7.88;;;15.40;68.30;;;;;;4995189;28;20442;-71
2021/04/21 06:00:10;;;;;;;11.73;6.90;;;16.10;66.30;;;;;;5013029;28;20030;-73
2021/04/21 06:02:37;;;;;;;23.33;7.95;;;16.90;64.70;;;;;;5011314;28;20040;-72
2021/04/21 06:05:08;;;;;;;11.50;7.78;;;17.70;63.10;;;;;;5012675;28;20413;-73
2021/04/21 06:07:34;;;;;;;13.25;8.43;;;18.30;60.90;;;;;;4994274;28;20482;-73
2021/04/21 06:10:17;;;;;;;15.25;8.32;;;18.90;59.30;;;;;;5012577;28;20033;-72
2021/04/21 06:12:44;;;;;;;11.82;7.80;;;19.50;56.80;;;;;;5012355;28;20127;-72
2021/04/21 06:15:15;;;;;;;13.45;8.40;;;20.10;54.80;;;;;;5012366;28;20045;-72
2021/04/21 06:17:45;;;;;;;14.90;8.23;;;20.60;52.20;;;;;;5011441;28;20065;-70
2021/04/21 06:20:15;;;;;;;15.75;8.98;;;20.80;50.80;;;;;;5012519;28;20042;-70
2021/04/21 06:22:41;;;;;;;14.15;8.38;;;20.80;49.50;;;;;;5012017;28;20501;-72
2021/04/21 06:25:11;;;;;;;14.20;8.40;;;21.10;48.80;;;;;;5012425;28;20034;-72
2021/04/21 06:27:37;;;;;;;16.50;8.35;;;21.70;48.00;;;;;;5011480;28;20038;-72
2021/04/21 06:30:08;;;;;;;14.15;8.55;;;22.40;46.50;;;;;;4978526;28;20037;-72
2021/04/21 06:32:34;;;;;;;12.40;7.53;;;23.10;45.30;;;;;;5012406;28;20108;-73
2021/04/21 06:35:05;;;;;;;12.85;7.90;;;23.70;43.60;;;;;;5011883;28;20049;-73
2021/04/21 06:37:33;;;;;;;13.63;8.18;;;24.10;41.20;;;;;;5011730;28;20038;-72
2021/04/21 06:40:08;;;;;;;13.27;8.30;;;24.10;40.60;;;;;;4994698;28;20121;-70
2021/04/21 06:42:34;;;;;;;13.95;7.90;;;24.30;39.80;;;;;;5012073;28;20038;-70
2021/04/21 06:45:00;;;;;;;11.98;7.63;;;24.60;39.40;;;;;;5010706;28;20045;-70
2021/04/21 06:47:28;;;;;;;14.02;8.25;;;25.10;38.70;;;;;;5011229;28;20033;-72
2021/04/21 06:49:58;;;;;;;10.68;7.32;;;25.70;37.30;;;;;;4994247;28;20124;-72
2021/04/21 06:52:36;;;;;;;10.85;7.32;;;25.70;36.00;;;;;;4993704;28;20041;-70
2021/04/21 06:55:10;;;;;;;11.82;7.95;;;26.00;35.50;;;;;;5011804;28;20088;-70
2021/04/21 06:57:36;;;;;;;11.70;7.68;;;26.40;34.70;;;;;;5010873;28;20385;-71
2021/04/21 07:00:11;;;;;;;10.13;6.90;;;26.50;34.10;;;;;;5011705;28;20057;-71
2021/04/21 07:02:41;;;;;;;13.10;7.10;;;26.70;33.70;;;;;;5011079;28;20122;-71
2021/04/21 07:05:43;;;;;;;11.18;7.40;;;27.10;33.70;;;;;;5011018;28;20041;-69
2021/04/21 07:08:18;;;;;;;10.15;7.03;;;27.80;33.00;;;;;;4930565;29;20048;-71
2021/04/21 07:10:47;;;;;;;12.85;7.30;;;28.20;32.10;;;;;;5000360;28;20034;-70
2021/04/21 07:13:21;;;;;;;11.50;6.95;;;28.10;31.10;;;;;;4993119;28;20034;-70
2021/04/21 07:15:53;;;;;;;10.05;6.90;;;28.30;30.30;;;;;;5011506;28;20120;-70
2021/04/21 07:18:22;;;;;;;10.75;5.95;;;28.30;30.00;;;;;;5010666;28;20061;-71
2021/04/21 07:20:48;;;;;;;12.70;6.53;;;28.50;30.30;;;;;;4993634;28;20045;-70
2021/04/21 07:23:19;;;;;;;9.93;6.30;;;29.20;30.00;;;;;;4993443;28;20042;-70
2021/04/21 07:25:50;;;;;;;9.57;6.40;;;29.90;29.70;;;;;;4993412;28;20045;-71
2021/04/21 07:28:17;;;;;;;11.27;6.70;;;30.10;28.40;;;;;;5010523;28;20215;-71
2021/04/21 07:30:44;;;;;;;10.77;6.68;;;29.90;28.10;;;;;;4993421;28;20050;-73
2021/04/21 07:33:10;;;;;;;10.10;6.80;;;29.80;28.00;;;;;;5010778;28;20038;-72
2021/04/21 07:35:38;;;;;;;9.68;6.88;;;29.90;28.00;;;;;;5010526;28;20046;-71
2021/04/21 07:38:17;;;;;;;9.90;6.45;;;30.20;28.10;;;;;;4992911;28;20406;-72
2021/04/21 07:40:43;;;;;;;12.63;6.75;;;30.90;27.80;;;;;;5010359;28;20502;-72
2021/04/21 07:43:18;;;;;;;10.80;7.18;;;31.40;27.90;;;;;;4993081;28;20038;-72
2021/04/21 07:46:01;;;;;;;10.43;8.20;;;32.00;27.50;;;;;;5010929;28;20034;-71
2021/04/21 07:48:36;;;;;;;11.57;8.57;;;32.20;26.50;;;;;;5010025;28;20113;-71
2021/04/21 07:51:21;;;;;;;13.40;10.05;;;31.80;26.40;;;;;;4993059;28;20085;-71
2021/04/21 07:53:48;;;;;;;12.43;9.27;;;31.60;26.40;;;;;;5008672;28;20387;-71
2021/04/21 07:56:15;;;;;;;11.55;9.23;;;31.80;26.80;;;;;;5010409;28;20049;-72
2021/04/21 07:58:41;;;;;;;13.13;10.52;;;32.10;26.50;;;;;;5009475;28;20494;-71
2021/04/21 08:01:07;;;;;;;13.90;11.77;;;32.20;26.20;;;;;;5010671;28;20042;-72
2021/04/21 08:03:36;;;;;;;13.20;11.07;;;32.30;25.90;;;;;;5010331;28;20050;-72
2021/04/21 08:06:03;;;;;;;15.15;11.50;;;31.80;26.10;;;;;;5010124;28;20034;-71
2021/04/21 08:08:35;;;;;;;15.43;11.60;;;31.80;26.90;;;;;;5010085;28;20037;-70
2021/04/21 08:11:04;;;;;;;16.33;12.65;;;32.20;26.30;;;;;;4992829;28;20491;-73
2021/04/21 08:13:41;;;;;;;16.40;13.38;;;31.60;25.30;;;;;;5010519;28;20402;-72
2021/04/21 08:16:23;;;;;;;17.20;13.25;;;29.60;25.10;;;;;;4992408;28;20034;-70
2021/04/21 08:18:49;;;;;;;16.35;12.95;;;27.50;26.40;;;;;;5012914;28;20398;-71
2021/04/21 08:21:36;;;;;;;17.92;13.82;;;26.50;27.20;;;;;;4996350;28;20108;-71
2021/04/21 08:24:16;;;;;;;17.90;13.18;;;26.40;28.40;;;;;;5014467;28;20501;-70
2021/04/21 08:26:53;;;;;;;17.60;13.73;;;26.70;28.60;;;;;;5014526;28;20034;-71
2021/04/21 08:29:20;;;;;;;18.17;13.35;;;27.40;28.90;;;;;;5013521;28;20545;-70
2021/04/21 08:31:51;;;;;;;13.68;12.23;;;28.50;28.60;;;;;;5031936;28;20060;-72
2021/04/21 08:34:21;;;;;;;16.48;12.73;;;29.20;28.30;;;;;;5034227;28;20045;-72
2021/04/21 08:36:47;;;;;;;17.27;13.43;;;28.30;27.00;;;;;;5033689;28;20625;-71
2021/04/21 08:39:14;;;;;;;18.48;15.00;;;26.60;27.00;;;;;;5033155;28;20280;-70
2021/04/21 08:41:43;;;;;;;17.98;14.35;;;24.90;27.70;;;;;;5033204;28;20048;-71
2021/04/21 08:44:10;;;;;;;19.23;15.57;;;23.10;29.40;;;;;;5033423;28;20092;-71
2021/04/21 08:46:38;;;;;;;20.77;16.98;;;21.90;31.20;;;;;;5033423;28;20037;-72
2021/04/21 08:49:06;;;;;;;23.73;17.77;;;21.00;32.70;;;;;;5014767;28;20033;-72
2021/04/21 08:51:32;;;;;;;20.02;16.60;;;20.40;33.80;;;;;;5032979;28;20470;-71
2021/04/21 08:54:11;;;;;;;22.35;16.85;;;19.90;34.80;;;;;;5032782;28;20029;-72
2021/04/21 08:56:41;;;;;;;25.05;17.92;;;19.40;36.20;;;;;;5015584;28;20119;-72
2021/04/21 08:59:09;;;;;;;23.33;18.17;;;19.10;37.10;;;;;;5032261;28;20052;-73
2021/04/21 09:01:35;;;;;;;24.08;18.00;;;18.80;37.60;;;;;;5015357;28;20034;-72
2021/04/21 09:04:02;;;;;;;23.60;18.13;;;18.70;38.40;;;;;;5033316;28;20469;-71
2021/04/21 09:06:28;;;;;;;29.80;18.05;;;18.60;38.90;;;;;;4998633;28;20049;-72
2021/04/21 09:08:57;;;;;;;22.88;17.60;;;18.50;39.70;;;;;;5032700;28;20044;-72
2021/04/21 09:11:24;;;;;;;26.10;18.30;;;18.70;40.50;;;;;;5032615;28;20562;-72
2021/04/21 09:13:51;;;;;;;25.13;17.42;;;18.90;40.40;;;;;;5032934;28;20071;-72
2021/04/21 09:16:18;;;;;;;22.35;17.02;;;18.80;39.80;;;;;;5015317;28;20038;-73
2021/04/21 09:18:44;;;;;;;23.30;16.55;;;18.50;39.40;;;;;;5032220;28;20037;-72
2021/04/21 09:21:32;;;;;;;23.38;16.73;;;18.10;40.60;;;;;;5015181;28;20049;-72
2021/04/21 09:23:59;;;;;;;23.08;16.80;;;17.80;41.40;;;;;;5032420;28;20439;-72
2021/04/21 09:26:31;;;;;;;23.08;16.50;;;17.50;41.90;;;;;;5032786;28;20041;-72
2021/04/21 09:28:57;;;;;;;24.38;16.55;;;17.40;42.70;;;;;;5031313;28;20524;-70
2021/04/21 09:31:26;;;;;;;23.88;17.15;;;17.20;42.70;;;;;;5014936;28;20042;-71
2021/04/21 09:34:13;;;;;;;22.65;16.27;;;17.00;43.00;;;;;;5032133;28;20120;-71
2021/04/21 09:36:42;;;;;;;25.42;16.63;;;16.70;43.40;;;;;;5014888;28;20034;-71
2021/04/21 09:39:25;;;;;;;24.00;16.10;;;16.50;44.50;;;;;;5031739;28;20029;-72
2021/04/21 09:42:02;;;;;;;24.50;16.00;;;16.50;45.30;;;;;;5032524;28;20041;-73
2021/04/21 09:44:30;;;;;;;23.30;16.00;;;16.30;45.30;;;;;;5032221;28;20551;-72
2021/04/21 09:46:58;;;;;;;21.40;15.07;;;16.10;45.30;;;;;;5032092;28;20421;-70
2021/04/21 09:49:31;;;;;;;23.48;15.32;;;15.70;46.10;;;;;;5032066;28;20091;-71
2021/04/21 09:52:00;;;;;;;22.17;15.90;;;15.50;47.00;;;;;;5014440;28;20176;-72
2021/04/21 09:54:36;;;;;;;24.80;15.75;;;15.40;47.20;;;;;;5032013;28;20050;-71
2021/04/21 09:57:09;;;;;;;21.15;14.88;;;15.20;47.50;;;;;;5032158;28;20091;-72
2021/04/21 09:59:36;;;;;;;22.50;15.00;;;15.10;48.40;;;;;;5014311;28;20389;-72
2021/04/21 10:02:03;;;;;;;24.58;15.13;;;15.00;48.60;;;;;;5032328;28;20095;-70
2021/04/21 10:04:30;;;;;;;20.70;14.93;;;15.00;48.80;;;;;;5031825;28;20125;-70
2021/04/21 10:07:01;;;;;;;20.50;14.38;;;15.00;49.50;;;;;;5032336;28;20040;-72
2021/04/21 10:09:34;;;;;;;21.00;15.05;;;15.20;50.00;;;;;;5032355;28;20124;-70
2021/04/21 10:12:17;;;;;;;20.13;13.55;;;15.60;50.50;;;;;;5031813;28;20063;-72
2021/04/21 10:14:46;;;;;;;22.23;13.75;;;16.20;50.10;;;;;;5031757;28;20049;-72
2021/04/21 10:17:13;;;;;;;18.52;12.23;;;16.60;49.80;;;;;;5031564;28;20193;-72
2021/04/21 10:19:41;;;;;;;21.13;12.32;;;16.90;48.80;;;;;;5031794;28;20037;-72
2021/04/21 10:22:11;;;;;;;17.55;11.32;;;16.80;47.50;;;;;;5031534;28;20049;-72
2021/04/21 10:24:37;;;;;;;18.05;11.00;;;16.60;47.20;;;;;;5014093;28;20048;-71
2021/04/21 10:27:04;;;;;;;16.25;10.30;;;16.50;47.20;;;;;;5013392;28;20072;-70
2021/04/21 10:29:30;;;;;;;16.83;10.52;;;16.20;47.30;;;;;;5031880;28;20041;-72
2021/04/21 10:31:57;;;;;;;17.65;9.63;;;16.10;47.80;;;;;;5031699;28;20048;-73
2021/04/21 10:34:23;;;;;;;13.82;9.10;;;15.90;47.90;;;;;;5031469;28;20548;-67
2021/04/21 10:36:52;;;;;;;14.98;8.75;;;16.00;48.70;;;;;;5031718;28;20045;-66
2021/04/21 10:39:36;;;;;;;15.23;8.32;;;16.30;48.70;;;;;;5031037;28;20042;-67
2021/04/21 10:42:05;;;;;;;13.23;7.32;;;16.40;48.40;;;;;;5031256;28;20388;-68
2021/04/21 10:44:31;;;;;;;12.18;7.13;;;16.60;48.20;;;;;;5013448;28;20049;-68
2021/04/21 10:47:07;;;;;;;11.10;5.78;;;16.90;48.30;;;;;;5031109;28;20049;-67
2021/04/21 10:49:42;;;;;;;10.00;5.18;;;17.70;48.10;;;;;;5030615;28;20052;-66
2021/04/21 10:52:28;;;;;;;8.98;5.15;;;19.10;47.20;;;;;;5031199;28;20034;-66
2021/04/21 10:54:58;;;;;;;8.52;4.28;;;19.80;44.80;;;;;;5020261;28;20038;-65
2021/04/21 10:57:31;;;;;;;9.68;4.03;;;19.40;42.60;;;;;;5030364;28;20560;-66
2021/04/21 11:00:15;;;;;;;11.43;4.13;;;19.00;42.70;;;;;;5012850;28;20034;-66
2021/04/21 11:02:41;;;;;;;7.28;3.50;;;18.70;42.90;;;;;;5031080;28;20116;-65
2021/04/21 11:05:11;;;;;;;8.70;3.40;;;19.00;43.30;;;;;;5030170;28;20037;-65
2021/04/21 11:07:58;;;;;;;7.43;2.70;;;19.90;44.00;;;;;;5029885;28;20119;-65
2021/04/21 11:10:39;;;;;;;6.20;2.70;;;20.60;42.00;;;;;;5029861;28;20102;-66
2021/04/21 11:13:06;;;;;;;7.78;2.65;;;21.00;40.50;;;;;;5027903;28;20041;-66
2021/04/21 11:15:38;;;;;;;5.40;2.53;;;21.50;40.40;;;;;;5028936;28;20033;-65
2021/04/21 11:18:12;;;;;;;6.20;2.25;;;21.40;38.30;;;;;;5029129;28;20037;-65
2021/04/21 11:20:47;;;;;;;11.27;2.65;;;20.60;37.10;;;;;;5028710;28;20118;-67
2021/04/21 11:23:52;;;;;;;5.88;1.90;;;19.80;37.80;;;;;;5032080;28;20049;-65
2021/04/21 11:26:24;;;;;;;5.22;2.10;;;20.40;39.80;;;;;;5029244;28;20037;-65
2021/04/21 11:29:08;;;;;;;7.10;2.30;;;22.40;39.40;;;;;;5028347;28;20035;-67
2021/04/21 11:31:42;;;;;;;7.57;2.20;;;23.50;37.20;;;;;;5027628;28;20049;-68
2021/04/21 11:34:20;;;;;;;7.68;2.08;;;23.30;34.80;;;;;;5029333;28;20444;-67
2021/04/21 11:36:46;;;;;;;8.35;2.20;;;22.50;34.20;;;;;;5030559;28;20033;-67
2021/04/21 11:39:13;;;;;;;7.18;2.10;;;22.40;35.00;;;;;;5030469;28;20393;-66
2021/04/21 11:41:48;;;;;;;7.25;1.98;;;22.20;34.10;;;;;;5014933;28;20060;-67
2021/04/21 11:44:49;;;;;;;7.63;1.90;;;22.60;34.80;;;;;;5031175;28;20056;-66
2021/04/21 11:47:45;;;;;;;7.93;1.80;;;23.90;33.10;;;;;;5039276;22;20555;-65
2021/04/21 11:50:27;;;;;;;6.68;1.80;;;23.00;30.70;;;;;;5027883;28;20033;-66
2021/04/21 11:52:58;;;;;;;7.25;1.80;;;21.50;31.20;;;;;;5030620;28;20036;-67
2021/04/21 11:55:45;;;;;;;6.60;2.00;;;20.60;32.20;;;;;;5026301;28;20078;-67
2021/04/21 11:58:20;;;;;;;7.45;1.83;;;20.10;33.20;;;;;;5028808;28;20381;-66
2021/04/21 12:00:55;;;;;;;8.98;1.60;;;20.00;34.00;;;;;;5030151;28;20071;-66
2021/04/21 12:03:38;;;;;;;7.88;1.75;;;20.30;34.30;;;;;;5029675;28;20041;-67
2021/04/21 12:06:13;;;;;;;9.38;1.92;;;21.40;34.70;;;;;;5030047;28;20057;-66
2021/04/21 12:08:44;;;;;;;6.65;1.48;;;22.60;33.50;;;;;;4995325;28;20026;-66
2021/04/21 12:11:10;;;;;;;6.38;1.70;;;23.20;32.10;;;;;;5030151;28;20029;-65
2021/04/21 12:13:46;;;;;;;7.97;1.90;;;22.60;30.00;;;;;;4995787;28;20041;-63
2021/04/21 12:16:17;;;;;;;10.20;2.20;;;21.40;30.50;;;;;;5030181;28;20033;-63
2021/04/21 12:18:52;;;;;;;8.75;2.15;;;20.50;31.60;;;;;;5029339;28;20555;-65
2021/04/21 12:21:18;;;;;;;10.40;2.10;;;19.90;32.40;;;;;;5029994;28;20129;-66
2021/04/21 12:23:53;;;;;;;10.02;2.10;;;19.30;32.70;;;;;;5029445;28;20472;-64
2021/04/21 12:26:36;;;;;;;9.07;1.67;;;19.20;34.20;;;;;;4997116;28;20041;-65
2021/04/21 12:29:12;;;;;;;11.80;2.10;;;19.30;34.30;;;;;;5011431;28;20029;-65
2021/04/21 12:31:39;;;;;;;12.50;1.63;;;19.50;34.30;;;;;;5029997;28;20043;-66
2021/04/21 12:34:06;;;;;;;9.20;1.80;;;19.90;33.70;;;;;;4995410;28;20044;-65
2021/04/21 12:36:36;;;;;;;5.97;1.73;;;20.60;34.00;;;;;;4996293;28;20037;-67
2021/04/21 12:39:06;;;;;;;7.20;1.75;;;21.30;32.60;;;;;;5011484;28;20037;-66
2021/04/21 12:41:34;;;;;;;7.07;1.58;;;21.00;31.10;;;;;;5029950;28;20083;-66
2021/04/21 12:44:40;;;;;;;8.13;1.85;;;20.70;30.90;;;;;;5011016;28;20037;-67
2021/04/21 12:47:12;;;;;;;10.05;1.92;;;21.60;31.30;;;;;;4930902;29;20507;-62
2021/04/21 12:49:40;;;;;;;7.13;1.98;;;22.10;30.50;;;;;;5018260;28;20553;-63
2021/04/21 12:52:08;;;;;;;8.60;1.83;;;22.20;29.90;;;;;;5014602;28;20033;-66
2021/04/21 12:54:43;;;;;;;7.10;1.58;;;22.50;30.10;;;;;;5022662;28;20036;-68
2021/04/21 12:57:11;;;;;;;7.95;1.80;;;22.80;29.70;;;;;;5014352;28;20564;-68
2021/04/21 12:59:39;;;;;;;8.93;1.90;;;22.70;28.70;;;;;;5031800;28;20032;-67
2021/04/21 13:02:05;;;;;;;8.98;2.17;;;21.90;28.20;;;;;;5049799;28;20047;-64
2021/04/21 13:04:40;;;;;;;11.40;2.40;;;21.00;28.30;;;;;;5017779;28;20041;-66
2021/04/21 13:07:24;;;;;;;8.50;2.38;;;20.10;28.80;;;;;;5034902;28;20048;-64
2021/04/21 13:10:03;;;;;;;10.57;2.40;;;19.30;29.40;;;;;;5034931;28;20091;-65
2021/04/21 13:12:29;;;;;;;9.05;2.22;;;18.40;29.70;;;;;;5053212;28;20124;-66
2021/04/21 13:15:06;;;;;;;8.10;2.35;;;18.30;31.10;;;;;;5018191;28;20045;-65
2021/04/21 13:17:46;;;;;;;9.73;2.60;;;18.80;31.80;;;;;;5052556;28;20382;-66